Time;durP1;ratioP1;P1;durP2;ratioP2;P2;SDS_P1;SDS_P2;PMS_P1;PMS_P2;Temp;Humidity;BMP_temperature;BMP_pressure;BME280_temperature;BME280_humidity;BME280_pressure;Samples;Min_cycle;Max_cycle;Signal;HPM_P1;HPM_P2
2021/09/08 00:01:54;;;;;;;;;13.25;13.00;;;;;25.69;37.32;100988.03;5067684;28;47816;-59
2021/09/08 00:04:20;;;;;;;;;15.00;13.25;;;;;25.66;37.49;100987.34;5080394;28;45343;-58
2021/09/08 00:06:45;;;;;;;;;14.00;14.00;;;;;25.64;37.30;100983.91;5061813;28;45403;-58
2021/09/08 00:09:11;;;;;;;;;13.00;13.00;;;;;25.64;37.93;100986.63;5080422;27;45647;-57
2021/09/08 00:11:37;;;;;;;;;11.50;11.50;;;;;25.62;37.71;100981.31;5062167;28;48363;-58
2021/09/08 00:14:02;;;;;;;;;15.25;13.75;;;;;25.60;37.76;100977.84;5073664;28;45364;-58
2021/09/08 00:16:28;;;;;;;;;14.00;11.00;;;;;25.58;37.83;100977.13;5075474;28;45425;-58
2021/09/08 00:18:53;;;;;;;;;13.50;13.50;;;;;25.55;37.84;100971.94;5080124;28;45702;-58
2021/09/08 00:21:19;;;;;;;;;8.25;8.25;;;;;25.52;37.43;100972.16;5079252;28;48069;-58
2021/09/08 00:23:44;;;;;;;;;12.25;12.00;;;;;25.51;37.42;100973.16;5070219;28;46145;-58
2021/09/08 00:26:10;;;;;;;;;13.50;12.00;;;;;25.49;37.86;100965.13;5058124;28;45515;-58
2021/09/08 00:28:36;;;;;;;;;12.00;12.00;;;;;25.47;38.15;100963.53;5080507;27;45316;-58
2021/09/08 00:31:01;;;;;;;;;12.50;11.50;;;;;25.42;37.74;100953.03;5062563;27;48567;-58
2021/09/08 00:33:27;;;;;;;;;13.75;12.75;;;;;25.40;37.97;100955.00;5069941;27;45224;-58
2021/09/08 00:35:55;;;;;;;;;12.00;10.50;;;;;25.38;38.25;100953.38;5076749;28;45243;-58
2021/09/08 00:38:20;;;;;;;;;14.00;13.00;;;;;25.37;37.86;100943.50;5079707;28;45274;-56
2021/09/08 00:40:46;;;;;;;;;16.00;14.75;;;;;25.35;37.62;100945.50;5079282;28;48325;-56
2021/09/08 00:43:12;;;;;;;;;11.25;11.25;;;;;25.30;38.15;100943.16;5079570;27;45283;-57
2021/09/08 00:45:37;;;;;;;;;11.00;10.00;;;;;25.24;38.22;100939.06;5079590;28;45679;-57
2021/09/08 00:48:04;;;;;;;;;14.00;12.00;;;;;25.20;37.96;100940.31;5079533;28;45385;-57
2021/09/08 00:50:29;;;;;;;;;13.50;12.00;;;;;25.20;38.30;100934.88;5061594;28;46495;-57
2021/09/08 00:52:58;;;;;;;;;15.00;15.00;;;;;25.20;38.74;100934.88;5078909;28;45563;-57
2021/09/08 00:55:26;;;;;;;;;11.25;11.25;;;;;25.22;38.69;100932.88;5079439;28;45525;-56
2021/09/08 00:57:51;;;;;;;;;11.50;11.00;;;;;25.23;38.43;100928.31;5077874;28;45651;-57
2021/09/08 01:00:17;;;;;;;;;9.50;9.00;;;;;25.25;38.55;100929.06;5079779;27;47332;-56
2021/09/08 01:02:43;;;;;;;;;12.00;12.00;;;;;25.26;38.48;100919.91;5078637;27;46109;-56
2021/09/08 01:05:09;;;;;;;;;10.50;10.50;;;;;25.27;38.50;100927.06;5079539;27;45424;-58
2021/09/08 01:07:35;;;;;;;;;12.00;12.00;;;;;25.27;38.45;100918.94;5078604;27;45345;-56
2021/09/08 01:10:01;;;;;;;;;12.50;11.00;;;;;25.28;38.29;100920.66;5078737;27;48400;-57
2021/09/08 01:12:27;;;;;;;;;13.00;12.75;;;;;25.29;38.57;100932.41;5060871;27;45255;-57
2021/09/08 01:14:52;;;;;;;;;10.75;10.75;;;;;25.27;38.25;100927.06;5079196;27;45346;-57
2021/09/08 01:17:20;;;;;;;;;12.00;12.00;;;;;25.26;38.13;100928.06;5078993;27;45361;-57
2021/09/08 01:19:46;;;;;;;;;11.50;11.50;;;;;25.24;38.69;100924.63;5061140;28;47566;-57
2021/09/08 01:22:12;;;;;;;;;14.25;13.25;;;;;25.22;38.64;100919.31;5078821;27;45300;-57
2021/09/08 01:24:42;;;;;;;;;13.50;13.25;;;;;25.22;38.48;100916.59;5061108;28;45396;-58
2021/09/08 01:27:08;;;;;;;;;12.00;12.00;;;;;25.21;38.93;100908.56;5074425;28;45848;-57
2021/09/08 01:29:33;;;;;;;;;13.25;11.75;;;;;25.21;38.96;100919.44;5079024;27;48391;-56
2021/09/08 01:31:59;;;;;;;;;15.00;14.00;;;;;25.20;38.76;100909.56;5060715;27;45314;-57
2021/09/08 01:34:26;;;;;;;;;13.25;12.75;;;;;25.20;38.83;100917.72;5078164;27;45295;-57
2021/09/08 01:36:52;;;;;;;;;12.00;12.00;;;;;25.19;39.05;100905.13;5078480;27;45523;-57
2021/09/08 01:39:19;;;;;;;;;13.75;13.75;;;;;25.19;38.92;100905.13;5080400;27;47346;-57
2021/09/08 01:41:49;;;;;;;;;14.50;13.00;;;;;25.18;38.83;100904.25;5078661;28;45650;-57
2021/09/08 01:44:24;;;;;;;;;12.50;12.50;;;;;25.18;38.83;100906.09;5060818;28;45398;-57
2021/09/08 01:46:52;;;;;;;;;9.50;9.50;;;;;25.18;39.44;100904.25;5084226;27;45313;-57
2021/09/08 01:49:17;;;;;;;;;14.75;13.25;;;;;25.19;39.25;100896.97;5063572;28;48522;-57
2021/09/08 01:51:43;;;;;;;;;12.25;12.25;;;;;25.18;39.45;100890.66;5060298;28;45914;-57
2021/09/08 01:54:09;;;;;;;;;8.25;7.75;;;;;25.18;38.89;100893.38;5078643;27;45413;-57
2021/09/08 01:56:34;;;;;;;;;9.25;8.50;;;;;25.18;39.38;100890.66;5086474;27;45564;-57
2021/09/08 01:59:00;;;;;;;;;11.75;11.75;;;;;25.16;38.90;100884.50;5078148;28;47479;-58
2021/09/08 02:01:26;;;;;;;;;12.00;11.75;;;;;25.15;39.09;100890.91;5078755;27;45432;-57
2021/09/08 02:03:55;;;;;;;;;12.50;10.50;;;;;25.15;39.63;100880.03;5078356;27;45448;-57
2021/09/08 02:06:25;;;;;;;;;13.75;13.75;;;;;25.15;39.18;100879.16;5069654;27;45738;-57
2021/09/08 02:08:57;;;;;;;;;14.00;14.00;;;;;25.12;39.34;100882.13;5059788;28;48042;-57
2021/09/08 02:11:22;;;;;;;;;12.00;11.50;;;;;25.08;39.81;100876.09;5078676;27;45293;-57
2021/09/08 02:13:49;;;;;;;;;14.25;14.25;;;;;25.07;39.26;100881.66;5078297;27;45784;-57
2021/09/08 02:16:15;;;;;;;;;13.75;13.25;;;;;25.06;39.14;100871.78;5070570;28;45351;-57
2021/09/08 02:18:43;;;;;;;;;13.50;12.25;;;;;25.03;39.77;100867.47;5059780;28;45740;-57
2021/09/08 02:21:09;;;;;;;;;16.50;15.75;;;;;25.02;39.85;100865.69;5078336;28;45674;-58
2021/09/08 02:23:34;;;;;;;;;12.25;12.25;;;;;25.01;39.99;100863.97;5060563;28;45361;-57
2021/09/08 02:26:00;;;;;;;;;15.50;15.50;;;;;25.00;39.91;100859.50;5078484;28;45592;-57
2021/09/08 02:28:25;;;;;;;;;12.25;12.25;;;;;24.99;39.46;100851.47;5059713;28;46756;-57
2021/09/08 02:30:51;;;;;;;;;14.25;13.50;;;;;24.97;39.77;100850.75;5059439;28;45339;-57
2021/09/08 02:33:17;;;;;;;;;13.50;12.25;;;;;24.96;39.97;100855.31;5078329;28;45592;-57
2021/09/08 02:35:42;;;;;;;;;16.25;15.50;;;;;24.95;39.93;100840.00;5078441;28;45331;-57
2021/09/08 02:38:08;;;;;;;;;13.50;13.50;;;;;24.94;39.82;100835.56;5078174;28;46474;-57
2021/09/08 02:40:34;;;;;;;;;12.25;12.25;;;;;24.93;40.08;100837.44;5079579;27;45421;-57
2021/09/08 02:42:59;;;;;;;;;14.25;14.25;;;;;24.92;40.38;100832.13;5081239;28;45338;-57
2021/09/08 02:45:25;;;;;;;;;17.00;13.50;;;;;24.93;40.26;100828.41;5080979;28;45842;-58
2021/09/08 02:47:50;;;;;;;;;14.50;13.50;;;;;24.91;40.29;100823.13;5080503;27;46133;-56
2021/09/08 02:50:16;;;;;;;;;16.00;15.75;;;;;24.89;40.67;100833.22;5081537;28;45373;-57
2021/09/08 02:52:41;;;;;;;;;16.00;15.75;;;;;24.88;40.24;100826.06;5081601;27;45429;-57
2021/09/08 02:55:07;;;;;;;;;12.00;11.75;;;;;24.86;40.75;100827.16;5083958;27;45272;-57
2021/09/08 02:57:33;;;;;;;;;15.75;14.75;;;;;24.84;40.60;100824.56;5078507;27;47407;-57
2021/09/08 02:59:58;;;;;;;;;14.50;13.25;;;;;24.82;40.74;100817.53;5081120;28;45283;-58
2021/09/08 03:02:24;;;;;;;;;13.00;13.00;;;;;24.82;40.37;100817.53;5081130;28;45830;-57
2021/09/08 03:04:49;;;;;;;;;15.75;14.00;;;;;24.80;40.57;100814.09;5063184;28;45497;-57
2021/09/08 03:07:15;;;;;;;;;15.75;14.00;;;;;24.78;40.56;100816.06;5081211;28;47229;-58
2021/09/08 03:09:40;;;;;;;;;13.00;13.00;;;;;24.78;40.93;100813.34;5064361;28;45560;-58
2021/09/08 03:12:06;;;;;;;;;16.00;15.00;;;;;24.76;40.84;100804.44;5081496;28;45429;-57
2021/09/08 03:14:31;;;;;;;;;14.25;12.75;;;;;24.76;40.95;100801.72;5081646;28;45479;-57
2021/09/08 03:16:57;;;;;;;;;12.75;10.75;;;;;24.76;40.93;100801.72;5077293;27;47889;-57
2021/09/08 03:19:22;;;;;;;;;15.50;15.50;;;;;24.75;41.03;100800.00;5080946;28;45740;-57
2021/09/08 03:21:48;;;;;;;;;14.75;14.75;;;;;24.75;41.12;100797.28;5081290;28;45450;-57
2021/09/08 03:24:13;;;;;;;;;16.00;16.00;;;;;24.75;41.21;100800.00;5081338;28;45517;-57
2021/09/08 03:26:39;;;;;;;;;13.00;13.00;;;;;24.74;41.08;100795.56;5080946;28;47106;-57
2021/09/08 03:29:04;;;;;;;;;13.50;13.00;;;;;24.70;41.36;100794.09;5080587;28;45490;-57
2021/09/08 03:31:30;;;;;;;;;16.75;16.00;;;;;24.68;41.13;100796.06;5062651;28;45852;-58
2021/09/08 03:33:55;;;;;;;;;16.75;16.75;;;;;24.65;41.42;100798.03;5080692;28;45809;-56
2021/09/08 03:36:21;;;;;;;;;12.25;12.25;;;;;24.64;41.14;100788.16;5062525;28;48208;-56
2021/09/08 03:38:46;;;;;;;;;15.00;13.25;;;;;24.64;41.67;100793.56;5080509;27;45341;-58
2021/09/08 03:41:12;;;;;;;;;14.25;13.25;;;;;24.63;41.36;100785.56;5081867;27;45594;-58
2021/09/08 03:43:37;;;;;;;;;17.50;13.25;;;;;24.62;41.45;100783.84;5081009;27;45694;-58
2021/09/08 03:46:07;;;;;;;;;14.00;13.75;;;;;24.63;41.60;100782.84;5062144;28;47370;-58
2021/09/08 03:48:33;;;;;;;;;20.00;17.75;;;;;24.61;41.64;100784.81;5080446;27;45543;-57
2021/09/08 03:50:58;;;;;;;;;19.50;18.50;;;;;24.59;41.48;100779.53;5079579;27;45446;-57
2021/09/08 03:53:24;;;;;;;;;17.50;15.75;;;;;24.59;41.79;100773.22;5080756;27;45406;-57
2021/09/08 03:55:49;;;;;;;;;15.75;15.75;;;;;24.59;41.83;100767.81;5080564;27;48777;-57
2021/09/08 03:58:15;;;;;;;;;14.00;13.00;;;;;24.58;41.93;100757.94;5080401;27;45387;-57
2021/09/08 04:00:40;;;;;;;;;14.75;14.25;;;;;24.54;42.05;100756.47;5080161;27;45441;-56
2021/09/08 04:03:06;;;;;;;;;16.50;15.00;;;;;24.51;41.79;100753.97;5080339;27;45937;-57
2021/09/08 04:05:31;;;;;;;;;14.00;14.00;;;;;24.51;41.85;100748.53;5061933;28;47446;-57
2021/09/08 04:07:56;;;;;;;;;13.50;13.50;;;;;24.49;42.26;100742.38;5080341;27;45475;-57
2021/09/08 04:10:23;;;;;;;;;16.00;16.00;;;;;24.46;42.33;100738.06;5080507;27;45370;-57
2021/09/08 04:12:49;;;;;;;;;21.50;17.25;;;;;24.45;41.92;100733.63;5080444;27;45333;-57
2021/09/08 04:15:15;;;;;;;;;17.50;13.75;;;;;24.43;42.31;100734.75;5077921;27;46909;-57
2021/09/08 04:17:40;;;;;;;;;15.50;15.50;;;;;24.41;42.46;100736.72;5067159;28;45565;-57
2021/09/08 04:20:08;;;;;;;;;17.50;16.50;;;;;24.37;42.67;100733.38;5080262;28;45398;-57
2021/09/08 04:22:34;;;;;;;;;18.00;15.50;;;;;24.37;42.54;100733.38;5081872;27;45580;-57
2021/09/08 04:24:59;;;;;;;;;15.25;14.75;;;;;24.36;42.49;100742.50;5080302;28;47491;-57
2021/09/08 04:27:25;;;;;;;;;17.00;16.00;;;;;24.33;42.57;100743.59;5080524;28;45653;-57
2021/09/08 04:29:50;;;;;;;;;16.00;16.00;;;;;24.31;42.53;100747.44;5081700;27;45503;-57
2021/09/08 04:32:16;;;;;;;;;14.50;14.00;;;;;24.27;42.44;100748.63;5087059;27;45550;-57
2021/09/08 04:34:43;;;;;;;;;17.75;17.25;;;;;24.21;42.49;100740.97;5061499;27;45739;-57
2021/09/08 04:37:08;;;;;;;;;17.25;16.75;;;;;24.16;42.74;100729.63;5080119;28;45332;-59
2021/09/08 04:39:34;;;;;;;;;15.00;15.00;;;;;24.12;43.04;100738.94;5081046;27;45220;-58
2021/09/08 04:41:59;;;;;;;;;13.50;13.50;;;;;24.09;43.32;100737.34;5080363;28;45442;-58
2021/09/08 04:44:25;;;;;;;;;16.00;15.00;;;;;24.09;43.12;100737.34;5062445;28;47128;-58
2021/09/08 04:46:50;;;;;;;;;14.00;13.75;;;;;24.08;43.22;100732.91;5079707;27;45417;-58
2021/09/08 04:49:16;;;;;;;;;14.50;13.00;;;;;24.10;43.31;100733.66;5080601;27;45677;-58
2021/09/08 04:51:41;;;;;;;;;17.00;16.00;;;;;24.10;43.39;100736.38;5081170;28;45290;-58
2021/09/08 04:54:07;;;;;;;;;16.00;15.00;;;;;24.10;43.31;100736.38;5081144;28;45357;-58
2021/09/08 04:56:33;;;;;;;;;15.75;15.50;;;;;24.10;43.41;100744.50;5062668;28;45469;-58
2021/09/08 04:58:58;;;;;;;;;14.75;14.50;;;;;24.10;43.35;100741.78;5068984;27;45796;-58
2021/09/08 05:01:24;;;;;;;;;17.25;14.00;;;;;24.12;43.61;100738.94;5054287;28;45368;-58
2021/09/08 05:03:49;;;;;;;;;14.75;14.75;;;;;24.09;43.39;100742.78;5070874;28;46710;-58
2021/09/08 05:06:15;;;;;;;;;13.25;13.25;;;;;24.07;43.25;100742.03;5071719;28;46088;-57
2021/09/08 05:08:40;;;;;;;;;18.00;16.75;;;;;24.07;43.65;100742.91;5074465;27;45812;-58
2021/09/08 05:11:06;;;;;;;;;16.00;16.00;;;;;24.09;43.55;100737.34;5078742;28;45654;-56
2021/09/08 05:13:31;;;;;;;;;16.00;14.75;;;;;24.08;43.54;100733.78;5060844;28;47069;-58
2021/09/08 05:15:57;;;;;;;;;19.25;17.75;;;;;24.10;43.74;100725.53;5073232;28;45318;-58
2021/09/08 05:18:22;;;;;;;;;15.25;15.25;;;;;24.10;43.39;100725.53;5075369;28;45461;-58
2021/09/08 05:20:48;;;;;;;;;15.50;15.50;;;;;24.11;43.61;100732.66;5060365;28;45463;-58
2021/09/08 05:23:13;;;;;;;;;18.00;18.00;;;;;24.12;43.59;100730.81;5078745;28;48233;-58
2021/09/08 05:25:39;;;;;;;;;14.00;14.00;;;;;24.12;43.63;100734.41;5078891;28;45418;-58
2021/09/08 05:28:04;;;;;;;;;18.25;17.50;;;;;24.13;43.49;100735.25;5079014;28;45804;-58
2021/09/08 05:30:30;;;;;;;;;18.75;15.00;;;;;24.12;43.71;100734.41;5078989;28;45322;-58
2021/09/08 05:32:55;;;;;;;;;18.50;18.00;;;;;24.12;43.71;100733.53;5080498;27;46942;-60
2021/09/08 05:35:21;;;;;;;;;17.50;17.25;;;;;24.12;43.60;100731.69;5078721;27;45460;-58
2021/09/08 05:37:46;;;;;;;;;16.50;15.50;;;;;24.13;43.78;100730.69;5078771;28;45418;-58
2021/09/08 05:40:12;;;;;;;;;16.50;15.25;;;;;24.13;43.81;100725.28;5080320;27;45632;-58
2021/09/08 05:42:38;;;;;;;;;18.00;17.75;;;;;24.14;43.92;100729.75;5078805;27;48187;-59
2021/09/08 05:45:04;;;;;;;;;19.75;16.50;;;;;24.13;43.78;100728.00;5060467;28;45607;-59
2021/09/08 05:47:30;;;;;;;;;18.50;17.00;;;;;24.14;43.91;100732.44;5059721;28;45533;-58
2021/09/08 05:49:55;;;;;;;;;18.00;16.50;;;;;24.14;43.91;100731.56;5075333;28;45552;-58
2021/09/08 05:52:21;;;;;;;;;24.75;21.75;;;;;24.12;44.10;100730.81;5075270;27;47320;-58
2021/09/08 05:54:46;;;;;;;;;16.75;16.75;;;;;24.08;43.91;100731.06;5043162;28;45651;-58
2021/09/08 05:57:12;;;;;;;;;17.25;16.00;;;;;24.07;43.95;100736.63;5059697;28;45502;-58
2021/09/08 05:59:37;;;;;;;;;16.50;16.50;;;;;24.05;44.25;100736.72;5078546;27;45433;-58
2021/09/08 06:02:03;;;;;;;;;18.50;18.25;;;;;24.07;44.10;100740.19;5058543;28;47458;-58
2021/09/08 06:04:28;;;;;;;;;18.00;17.25;;;;;24.08;44.20;100730.19;5077593;27;45398;-58
2021/09/08 06:06:55;;;;;;;;;19.25;17.75;;;;;24.11;44.07;100734.53;5059616;28;45387;-58
2021/09/08 06:09:21;;;;;;;;;15.75;15.75;;;;;24.09;44.16;100737.34;5060124;28;45802;-58
2021/09/08 06:11:46;;;;;;;;;18.50;16.75;;;;;24.10;44.09;100736.38;5059689;28;48215;-58
2021/09/08 06:14:13;;;;;;;;;17.25;17.25;;;;;24.12;44.32;100738.94;5080017;28;45921;-58
2021/09/08 06:16:39;;;;;;;;;18.00;14.50;;;;;24.13;44.25;100733.41;5080281;27;45414;-58
2021/09/08 06:19:05;;;;;;;;;22.00;21.00;;;;;24.16;43.90;100735.03;5081222;28;45449;-58
2021/09/08 06:21:31;;;;;;;;;19.25;18.50;;;;;24.17;44.14;100728.63;5062700;28;48186;-58
2021/09/08 06:23:56;;;;;;;;;19.25;19.25;;;;;24.19;44.00;100729.38;5081447;28;45408;-58
2021/09/08 06:26:23;;;;;;;;;15.00;15.00;;;;;24.21;44.25;100720.13;5063497;28;45390;-58
2021/09/08 06:28:51;;;;;;;;;20.00;20.00;;;;;24.24;44.20;100711.75;5063350;28;45468;-58
2021/09/08 06:31:17;;;;;;;;;17.50;17.00;;;;;24.25;44.49;100713.47;5087269;27;48610;-58
2021/09/08 06:33:43;;;;;;;;;16.75;16.25;;;;;24.29;44.41;100711.41;5084295;27;45361;-58
2021/09/08 06:36:08;;;;;;;;;16.25;16.25;;;;;24.30;44.33;100713.16;5087873;27;45351;-58
2021/09/08 06:38:34;;;;;;;;;19.75;19.00;;;;;24.31;44.30;100702.19;5063586;28;45504;-58
2021/09/08 06:41:00;;;;;;;;;18.00;18.00;;;;;24.34;44.01;100706.50;5082688;27;47804;-58
2021/09/08 06:43:26;;;;;;;;;19.75;19.00;;;;;24.37;44.06;100706.25;5065831;28;45350;-57
2021/09/08 06:45:52;;;;;;;;;16.75;16.75;;;;;24.40;44.14;100703.31;5064692;28;46527;-57
2021/09/08 06:48:17;;;;;;;;;19.25;17.75;;;;;24.41;44.45;100707.75;5064369;28;45653;-57
2021/09/08 06:50:43;;;;;;;;;20.75;20.50;;;;;24.41;44.45;100710.47;5080992;27;47325;-57
2021/09/08 06:53:08;;;;;;;;;19.50;18.75;;;;;24.42;44.29;100712.19;5063095;28;45864;-57
2021/09/08 06:55:33;;;;;;;;;18.75;16.25;;;;;24.44;44.40;100709.34;5060178;28;45680;-57
2021/09/08 06:57:59;;;;;;;;;21.75;19.25;;;;;24.44;44.26;100702.06;5081467;28;45477;-57
2021/09/08 07:00:24;;;;;;;;;17.00;16.50;;;;;24.43;44.11;100703.06;5081024;27;47442;-57
2021/09/08 07:02:50;;;;;;;;;20.00;19.00;;;;;24.43;44.48;100705.78;5078441;27;45333;-57
2021/09/08 07:05:17;;;;;;;;;18.25;17.00;;;;;24.44;44.17;100706.63;5081111;27;45362;-57
2021/09/08 07:07:43;;;;;;;;;20.00;18.50;;;;;24.46;44.11;100708.22;5065863;27;45770;-59
2021/09/08 07:10:09;;;;;;;;;18.50;17.00;;;;;24.49;44.36;100704.41;5076224;27;46863;-58
2021/09/08 07:12:35;;;;;;;;;20.00;19.50;;;;;24.51;44.48;100707.84;5084546;27;45851;-58
2021/09/08 07:15:01;;;;;;;;;17.25;15.00;;;;;24.52;44.19;100706.88;5063171;28;45410;-59
2021/09/08 07:17:26;;;;;;;;;18.25;18.25;;;;;24.53;43.94;100706.78;5078829;28;45484;-59
2021/09/08 07:19:52;;;;;;;;;17.75;17.00;;;;;24.53;44.04;100703.19;5080756;27;47067;-59
2021/09/08 07:22:17;;;;;;;;;22.00;17.75;;;;;24.54;44.28;100697.63;5062127;28;45496;-58
2021/09/08 07:24:43;;;;;;;;;17.25;16.50;;;;;24.57;44.57;100693.81;5080392;28;45612;-59
2021/09/08 07:27:09;;;;;;;;;22.00;20.25;;;;;24.59;44.19;100689.13;5080975;28;45514;-58
2021/09/08 07:29:34;;;;;;;;;17.25;16.75;;;;;24.61;44.40;100693.44;5063291;27;47305;-58
2021/09/08 07:32:00;;;;;;;;;17.25;15.75;;;;;24.64;44.28;100695.88;5070713;27;45939;-58
2021/09/08 07:34:26;;;;;;;;;20.50;18.75;;;;;24.68;44.47;100692.94;5079163;28;45306;-58
2021/09/08 07:36:51;;;;;;;;;21.75;19.00;;;;;24.68;44.18;100692.94;5056135;28;45382;-58
2021/09/08 07:39:17;;;;;;;;;21.75;20.50;;;;;24.68;44.53;100691.09;5084864;27;48375;-59
2021/09/08 07:41:43;;;;;;;;;19.50;19.25;;;;;24.70;44.32;100688.25;5082155;27;45322;-58
2021/09/08 07:44:09;;;;;;;;;20.00;19.75;;;;;24.70;44.65;100690.97;5080053;28;45357;-59
2021/09/08 07:46:34;;;;;;;;;20.75;18.75;;;;;24.70;44.49;100674.69;5080483;27;45500;-58
2021/09/08 07:49:00;;;;;;;;;15.75;15.75;;;;;24.71;44.54;100676.41;5079627;27;48434;-58
2021/09/08 07:51:25;;;;;;;;;22.50;21.00;;;;;24.73;44.51;100675.28;5079940;28;45373;-58
2021/09/08 07:53:51;;;;;;;;;18.75;17.00;;;;;24.74;44.52;100674.31;5061228;28;45862;-59
2021/09/08 07:56:16;;;;;;;;;19.00;19.00;;;;;24.75;44.46;100673.31;5079779;28;45799;-59
2021/09/08 07:58:42;;;;;;;;;23.50;20.00;;;;;24.76;44.69;100674.16;5079227;27;48199;-59
2021/09/08 08:01:07;;;;;;;;;21.75;19.75;;;;;24.77;44.85;100676.75;5066542;27;45462;-59
2021/09/08 08:03:33;;;;;;;;;19.25;18.50;;;;;24.79;44.60;100669.38;5086792;27;45765;-59
2021/09/08 08:05:58;;;;;;;;;22.50;20.00;;;;;24.81;44.92;100672.81;5061946;28;45259;-59
2021/09/08 08:08:24;;;;;;;;;16.50;16.50;;;;;24.82;44.54;100677.25;5087767;27;45437;-59
2021/09/08 08:10:49;;;;;;;;;18.25;17.50;;;;;24.82;44.94;100674.56;5080889;27;45692;-57
2021/09/08 08:13:15;;;;;;;;;18.50;17.75;;;;;24.85;44.97;100674.28;5061944;28;45387;-57
2021/09/08 08:15:41;;;;;;;;;19.50;19.25;;;;;24.88;44.67;100678.59;5061930;28;45713;-58
2021/09/08 08:18:06;;;;;;;;;23.50;20.75;;;;;24.90;45.04;100680.22;5077557;27;47348;-58
2021/09/08 08:20:32;;;;;;;;;17.50;17.50;;;;;24.94;45.10;100680.81;5073415;27;46032;-59
2021/09/08 08:22:57;;;;;;;;;20.00;19.00;;;;;24.96;44.76;100676.13;5074242;27;45854;-60
2021/09/08 08:25:31;;;;;;;;;17.75;17.75;;;;;25.00;45.29;100683.03;5079535;27;45287;-59
2021/09/08 08:27:58;;;;;;;;;17.00;16.00;;;;;25.04;44.71;100672.81;5079398;27;46151;-58
2021/09/08 08:30:24;;;;;;;;;16.25;15.75;;;;;25.07;45.14;100675.28;5077476;27;45691;-58
2021/09/08 08:32:49;;;;;;;;;19.00;19.00;;;;;25.10;44.76;100672.31;5079085;27;45641;-58
2021/09/08 08:35:16;;;;;;;;;18.00;16.50;;;;;25.14;44.76;100673.75;5084082;27;45430;-58
2021/09/08 08:37:41;;;;;;;;;21.50;20.00;;;;;25.18;44.87;100667.09;5059018;27;47559;-58
2021/09/08 08:40:10;;;;;;;;;19.25;18.50;;;;;25.21;44.54;100659.56;5061421;28;45564;-59
2021/09/08 08:42:36;;;;;;;;;19.50;18.00;;;;;25.23;44.84;100654.84;5079655;27;45412;-59
2021/09/08 08:45:03;;;;;;;;;18.25;17.00;;;;;25.25;44.59;100657.44;5079503;27;45700;-59
2021/09/08 08:47:30;;;;;;;;;19.50;19.00;;;;;25.29;45.15;100658.06;5062940;27;45729;-58
2021/09/08 08:49:56;;;;;;;;;23.75;21.25;;;;;25.31;44.63;100658.78;5079162;27;45712;-59
2021/09/08 08:52:22;;;;;;;;;18.75;18.00;;;;;25.32;44.64;100660.50;5078695;27;45432;-63
2021/09/08 08:54:47;;;;;;;;;21.00;20.50;;;;;25.35;45.13;100654.81;5067434;27;45407;-63
2021/09/08 08:57:14;;;;;;;;;16.75;16.75;;;;;25.37;44.77;100653.69;5079013;27;46184;-63
2021/09/08 08:59:45;;;;;;;;;20.75;19.75;;;;;25.40;45.16;100647.13;5078695;27;45528;-63
2021/09/08 09:02:25;;;;;;;;;23.75;21.25;;;;;25.42;45.24;100654.16;5078779;27;45476;-63
2021/09/08 09:04:54;;;;;;;;;20.00;19.50;;;;;25.44;45.00;100646.75;5078868;27;45359;-63
2021/09/08 09:07:31;;;;;;;;;17.25;16.75;;;;;25.46;45.32;100638.47;5079178;28;48150;-63
2021/09/08 09:09:59;;;;;;;;;20.00;18.00;;;;;25.48;44.76;100637.34;5078031;27;45476;-63
2021/09/08 09:12:32;;;;;;;;;22.25;18.50;;;;;25.47;45.17;100630.19;5065282;28;45474;-63
2021/09/08 09:14:59;;;;;;;;;21.00;19.25;;;;;25.50;45.38;100631.75;5078970;28;45401;-63
2021/09/08 09:17:29;;;;;;;;;20.50;19.50;;;;;25.52;45.20;100630.63;5077272;28;48358;-62
2021/09/08 09:19:55;;;;;;;;;21.50;19.50;;;;;25.56;45.56;100624.97;5078595;28;45616;-63
2021/09/08 09:22:25;;;;;;;;;19.75;19.75;;;;;25.57;45.41;100622.09;5079055;27;45362;-63
2021/09/08 09:24:52;;;;;;;;;20.50;20.00;;;;;25.59;45.37;100625.56;5078810;28;45898;-62
2021/09/08 09:27:18;;;;;;;;;18.25;18.25;;;;;25.61;45.20;100623.56;5079432;27;47335;-62
2021/09/08 09:29:44;;;;;;;;;23.25;22.75;;;;;25.65;45.62;100625.00;5081626;27;45720;-62
2021/09/08 09:32:11;;;;;;;;;20.00;20.00;;;;;25.67;45.31;100622.19;5083609;27;45382;-63
2021/09/08 09:34:41;;;;;;;;;18.50;18.50;;;;;25.69;45.40;100625.66;5073635;27;45453;-62
2021/09/08 09:37:09;;;;;;;;;21.00;19.25;;;;;25.72;44.74;100619.94;5077824;27;48364;-63
2021/09/08 09:39:37;;;;;;;;;18.00;17.50;;;;;25.74;45.28;100616.09;5080260;27;45425;-63
2021/09/08 09:42:08;;;;;;;;;18.75;18.75;;;;;25.77;45.45;100614.97;5088731;27;45691;-63
2021/09/08 09:44:34;;;;;;;;;19.25;18.50;;;;;25.80;44.98;100618.31;5062896;27;45560;-63
2021/09/08 09:47:02;;;;;;;;;22.75;21.75;;;;;25.81;45.36;100613.72;5086335;27;45476;-63
2021/09/08 09:49:32;;;;;;;;;27.50;22.75;;;;;25.85;45.01;100608.88;5065847;28;45401;-63
2021/09/08 09:51:59;;;;;;;;;21.50;19.25;;;;;25.87;45.58;100613.16;5082159;27;45354;-63
2021/09/08 09:54:25;;;;;;;;;19.75;18.50;;;;;25.90;45.49;100609.31;5081902;27;45378;-63
2021/09/08 09:56:54;;;;;;;;;19.25;18.25;;;;;25.92;45.05;100615.47;5081593;27;48307;-62
2021/09/08 09:59:23;;;;;;;;;19.00;19.00;;;;;25.94;45.26;100613.50;5080963;27;45695;-63
2021/09/08 10:01:49;;;;;;;;;19.50;19.25;;;;;25.97;45.41;100613.25;5086555;27;45597;-63
2021/09/08 10:04:15;;;;;;;;;20.50;18.25;;;;;25.99;45.29;100603.94;5081884;28;45382;-63
2021/09/08 10:06:41;;;;;;;;;17.00;16.75;;;;;26.01;45.08;100598.38;5081967;28;47289;-63
2021/09/08 10:09:12;;;;;;;;;21.00;18.75;;;;;26.05;45.70;100603.41;5093533;27;45365;-63
2021/09/08 10:11:44;;;;;;;;;18.50;16.75;;;;;26.08;45.66;100602.28;5081905;28;45381;-63
2021/09/08 10:14:16;;;;;;;;;20.50;20.25;;;;;26.10;45.02;100598.41;5046772;28;45575;-63
2021/09/08 10:16:46;;;;;;;;;19.00;19.00;;;;;26.15;45.59;100605.31;5080964;28;47411;-63
2021/09/08 10:19:16;;;;;;;;;19.75;19.25;;;;;26.17;45.38;100609.63;5066783;28;45548;-63
2021/09/08 10:21:45;;;;;;;;;17.25;17.25;;;;;26.18;45.67;100611.34;5062545;28;45677;-63
2021/09/08 10:24:11;;;;;;;;;20.75;20.75;;;;;26.22;45.40;100606.50;5079426;28;45666;-62
2021/09/08 10:26:36;;;;;;;;;17.00;16.75;;;;;26.24;45.06;100602.63;5061295;27;45378;-63
2021/09/08 10:29:08;;;;;;;;;16.50;16.50;;;;;26.27;45.91;100599.63;5081121;27;45420;-62
2021/09/08 10:31:37;;;;;;;;;19.00;17.25;;;;;26.29;45.81;100594.03;5067218;28;45468;-63
2021/09/08 10:34:04;;;;;;;;;20.00;18.50;;;;;26.31;45.43;100595.66;5081212;27;45467;-63
2021/09/08 10:36:31;;;;;;;;;18.00;18.00;;;;;26.34;45.27;100589.06;5086370;27;48432;-64
2021/09/08 10:39:11;;;;;;;;;19.00;19.00;;;;;26.37;45.49;100588.81;5080998;28;45408;-64
2021/09/08 10:41:42;;;;;;;;;22.50;21.25;;;;;26.43;45.82;100587.44;5093028;27;45404;-64
2021/09/08 10:44:09;;;;;;;;;19.00;19.00;;;;;26.46;45.38;100587.16;5081571;28;45521;-64
2021/09/08 10:47:01;;;;;;;;;22.00;21.00;;;;;26.48;45.66;100577.84;5080685;28;48465;-62
2021/09/08 10:49:39;;;;;;;;;19.25;18.75;;;;;26.53;45.01;100582.84;5076650;28;45433;-63
2021/09/08 10:52:06;;;;;;;;;22.50;20.00;;;;;26.54;44.87;100584.56;5081348;27;45610;-62
2021/09/08 10:54:32;;;;;;;;;19.00;19.00;;;;;26.55;45.54;100581.75;5073636;28;45501;-61
2021/09/08 10:56:58;;;;;;;;;19.50;18.25;;;;;26.58;45.77;100576.00;5061793;27;45516;-62
2021/09/08 10:59:24;;;;;;;;;22.25;21.00;;;;;26.61;45.12;100570.28;5080363;28;45859;-61
2021/09/08 11:01:53;;;;;;;;;19.75;19.75;;;;;26.65;45.27;100574.44;5080638;28;45401;-62
2021/09/08 11:04:19;;;;;;;;;17.00;17.00;;;;;26.69;45.75;100575.03;5081067;28;45607;-62
2021/09/08 11:06:48;;;;;;;;;20.75;18.50;;;;;26.72;45.32;100566.59;5080840;28;46376;-62